createdAt,value
2022-07-30T00:01:16.220Z,16.70
2022-07-30T00:03:43.600Z,16.70
2022-07-30T00:06:10.856Z,16.70
2022-07-30T00:08:38.117Z,16.70
2022-07-30T00:11:05.356Z,16.70
2022-07-30T00:13:32.645Z,16.70
2022-07-30T00:15:59.800Z,16.70
2022-07-30T00:18:26.963Z,16.70
2022-07-30T00:20:54.324Z,16.60
2022-07-30T00:23:23.693Z,16.70
2022-07-30T00:25:50.960Z,16.60
2022-07-30T00:28:18.341Z,16.60
2022-07-30T00:30:45.561Z,16.60
2022-07-30T00:33:12.774Z,16.60
2022-07-30T00:35:40.011Z,16.60
2022-07-30T00:38:07.489Z,16.60
2022-07-30T00:40:34.662Z,16.60
2022-07-30T00:43:01.964Z,16.60
2022-07-30T00:45:29.481Z,16.60
2022-07-30T00:47:58.847Z,16.60
2022-07-30T00:50:26.239Z,16.60
2022-07-30T00:52:53.515Z,16.60
2022-07-30T00:55:20.785Z,16.60
2022-07-30T00:57:48.166Z,16.60
2022-07-30T01:00:16.084Z,16.60
2022-07-30T01:02:43.773Z,16.60
2022-07-30T01:05:11.262Z,16.60
2022-07-30T01:07:38.757Z,16.60
2022-07-30T01:10:07.221Z,16.60
2022-07-30T01:12:34.492Z,16.60
2022-07-30T01:15:02.883Z,16.60
2022-07-30T01:17:30.167Z,16.60
2022-07-30T01:20:00.583Z,16.70
2022-07-30T01:22:31.164Z,16.70
2022-07-30T01:25:13.996Z,16.70
2022-07-30T01:27:57.407Z,16.70
2022-07-30T01:30:26.915Z,16.70
2022-07-30T01:32:54.482Z,16.60
2022-07-30T01:35:22.899Z,16.70
2022-07-30T01:37:51.412Z,16.70
2022-07-30T01:40:19.665Z,16.70
2022-07-30T01:42:48.419Z,16.70
2022-07-30T01:45:15.864Z,16.70
2022-07-30T01:47:43.239Z,16.70
2022-07-30T01:50:13.755Z,16.70
2022-07-30T01:52:44.071Z,16.70
2022-07-30T01:55:17.460Z,16.70
2022-07-30T01:57:46.209Z,16.70
2022-07-30T02:00:13.557Z,16.70
2022-07-30T02:02:49.819Z,16.70
2022-07-30T02:05:17.178Z,16.70
2022-07-30T02:08:01.612Z,16.70
2022-07-30T02:10:30.513Z,16.70
2022-07-30T02:13:01.714Z,16.70
2022-07-30T02:15:35.003Z,16.70
2022-07-30T02:18:24.587Z,16.70
2022-07-30T02:20:58.821Z,16.70
2022-07-30T02:23:26.948Z,16.70
2022-07-30T02:25:54.122Z,16.70
2022-07-30T02:28:22.917Z,16.70
2022-07-30T02:30:52.563Z,16.70
2022-07-30T02:33:26.277Z,16.80
2022-07-30T02:35:53.712Z,16.80
2022-07-30T02:38:21.036Z,16.70
2022-07-30T02:40:48.458Z,16.70
2022-07-30T02:43:21.392Z,16.70
2022-07-30T02:45:48.633Z,16.70
2022-07-30T02:48:34.205Z,16.70
2022-07-30T02:51:03.267Z,16.70
2022-07-30T02:53:30.497Z,16.70
2022-07-30T02:55:57.680Z,16.70
2022-07-30T02:58:25.422Z,16.70
2022-07-30T03:00:53.640Z,16.60
2022-07-30T03:03:21.750Z,16.70
2022-07-30T03:05:50.406Z,16.60
2022-07-30T03:08:19.899Z,16.60
2022-07-30T03:10:48.774Z,16.60
2022-07-30T03:13:16.003Z,16.60
2022-07-30T03:15:46.500Z,16.60
2022-07-30T03:18:13.839Z,16.50
2022-07-30T03:20:41.191Z,16.60
2022-07-30T03:23:08.432Z,16.60
2022-07-30T03:25:35.606Z,16.50
2022-07-30T03:28:04.027Z,16.60
2022-07-30T03:30:31.262Z,16.60
2022-07-30T03:32:58.655Z,16.60
2022-07-30T03:35:26.374Z,16.60
2022-07-30T03:37:55.115Z,16.60
2022-07-30T03:40:23.267Z,16.60
2022-07-30T03:42:50.771Z,16.50
2022-07-30T03:45:21.680Z,16.60
2022-07-30T03:47:50.328Z,16.60
2022-07-30T03:50:17.545Z,16.50
2022-07-30T03:52:44.778Z,16.60
2022-07-30T03:55:16.680Z,16.60
2022-07-30T03:57:46.536Z,16.50
2022-07-30T04:00:14.703Z,16.60
2022-07-30T04:02:46.562Z,16.60
2022-07-30T04:05:17.051Z,16.50
2022-07-30T04:07:45.716Z,16.50
2022-07-30T04:10:16.023Z,16.50
2022-07-30T04:13:12.811Z,16.60
2022-07-30T04:16:36.939Z,16.60
2022-07-30T04:18:51.120Z,16.60
2022-07-30T04:21:18.840Z,16.60
2022-07-30T04:24:03.623Z,16.60
2022-07-30T04:26:35.644Z,16.60
2022-07-30T04:29:05.846Z,16.60
2022-07-30T04:31:40.508Z,16.60
2022-07-30T04:34:34.493Z,16.60
2022-07-30T04:37:03.126Z,16.60
2022-07-30T04:39:30.620Z,16.60
2022-07-30T04:41:57.823Z,16.60
2022-07-30T04:44:45.252Z,16.60
2022-07-30T04:47:26.034Z,16.70
2022-07-30T04:50:24.571Z,16.70
2022-07-30T04:52:53.604Z,16.70
2022-07-30T04:55:26.179Z,16.70
2022-07-30T04:57:53.484Z,16.60
2022-07-30T05:00:20.686Z,16.70
2022-07-30T05:02:48.528Z,16.70
2022-07-30T05:05:16.090Z,16.70
2022-07-30T05:07:44.506Z,16.80
2022-07-30T05:10:12.089Z,16.80
2022-07-30T05:12:41.414Z,16.80
2022-07-30T05:15:09.595Z,16.80
2022-07-30T05:17:36.995Z,16.80
2022-07-30T05:20:07.029Z,16.80
2022-07-30T05:22:52.970Z,16.80
2022-07-30T05:25:22.222Z,16.90
2022-07-30T05:27:52.472Z,16.80
2022-07-30T05:30:19.757Z,16.90
2022-07-30T05:32:53.723Z,16.90
2022-07-30T05:35:23.569Z,16.90
2022-07-30T05:37:50.766Z,17.00
2022-07-30T05:40:19.875Z,16.90
2022-07-30T05:42:53.214Z,16.90
2022-07-30T05:45:20.433Z,17.00
2022-07-30T05:47:48.235Z,17.00
2022-07-30T05:50:15.448Z,17.00
2022-07-30T05:52:42.645Z,17.00
2022-07-30T05:55:28.380Z,17.00
2022-07-30T05:58:09.188Z,17.00
2022-07-30T06:00:36.529Z,17.00
2022-07-30T06:03:03.778Z,17.00
2022-07-30T06:05:49.532Z,17.00
2022-07-30T06:08:16.736Z,17.10
2022-07-30T06:10:43.961Z,17.10
2022-07-30T06:13:12.123Z,17.10
2022-07-30T06:15:39.457Z,17.20
2022-07-30T06:18:06.698Z,17.20
2022-07-30T06:20:49.406Z,17.20
2022-07-30T06:23:39.573Z,17.20
2022-07-30T06:26:13.840Z,17.20
2022-07-30T06:28:41.823Z,17.30
2022-07-30T06:31:19.846Z,17.30
2022-07-30T06:33:47.187Z,17.30
2022-07-30T06:36:15.257Z,17.20
2022-07-30T06:39:53.686Z,17.30
2022-07-30T06:42:20.075Z,17.20
2022-07-30T06:45:06.325Z,17.20
2022-07-30T06:48:11.648Z,17.30
2022-07-30T06:50:38.896Z,17.20
2022-07-30T06:53:06.482Z,17.20
2022-07-30T06:55:56.804Z,17.20
2022-07-30T06:58:27.906Z,17.20
2022-07-30T07:01:11.356Z,17.40
2022-07-30T07:03:40.578Z,17.50
2022-07-30T07:06:08.862Z,17.70
2022-07-30T07:08:37.731Z,17.80
2022-07-30T07:11:06.711Z,17.90
2022-07-30T07:13:43.039Z,18.00
2022-07-30T07:16:14.589Z,18.10
2022-07-30T07:18:45.966Z,18.10
2022-07-30T07:21:13.317Z,18.20
2022-07-30T07:23:42.319Z,18.30
2022-07-30T07:26:31.013Z,18.40
2022-07-30T07:29:01.063Z,18.50
2022-07-30T07:32:05.135Z,18.50
2022-07-30T07:34:18.638Z,18.50
2022-07-30T07:36:46.671Z,18.60
2022-07-30T07:39:14.856Z,18.70
2022-07-30T07:41:49.084Z,18.70
2022-07-30T07:44:19.382Z,18.70
2022-07-30T07:46:46.622Z,18.70
2022-07-30T07:49:13.909Z,18.70
2022-07-30T07:51:50.344Z,18.80
2022-07-30T07:54:22.545Z,18.80
2022-07-30T07:56:57.226Z,18.90
2022-07-30T07:59:42.248Z,19.00
2022-07-30T08:02:18.442Z,19.20
2022-07-30T08:05:06.490Z,19.20
2022-07-30T08:07:50.419Z,19.40
2022-07-30T08:10:35.901Z,19.50
2022-07-30T08:13:48.551Z,19.50
2022-07-30T08:16:38.441Z,19.50
2022-07-30T08:19:25.839Z,19.50
2022-07-30T08:22:11.163Z,19.60
2022-07-30T08:24:38.941Z,19.70
2022-07-30T08:27:06.259Z,19.80
2022-07-30T08:29:33.492Z,19.90
2022-07-30T08:32:01.787Z,19.90
2022-07-30T08:34:29.444Z,19.80
2022-07-30T08:36:57.936Z,19.90
2022-07-30T08:39:25.902Z,19.90
2022-07-30T08:41:53.124Z,19.90
2022-07-30T08:44:21.741Z,19.90
2022-07-30T08:46:56.258Z,20.00
2022-07-30T08:49:29.385Z,19.90
2022-07-30T08:51:57.750Z,19.90
2022-07-30T08:54:48.520Z,20.00
2022-07-30T08:57:15.815Z,20.10
2022-07-30T08:59:59.235Z,20.20
2022-07-30T09:02:30.698Z,20.30
2022-07-30T09:05:02.707Z,20.40
2022-07-30T09:07:29.950Z,20.50
2022-07-30T09:09:57.829Z,20.60
2022-07-30T09:12:33.820Z,20.50
2022-07-30T09:15:23.658Z,20.40
2022-07-30T09:18:02.052Z,20.50
2022-07-30T09:20:35.646Z,20.60
2022-07-30T09:23:06.767Z,20.60
2022-07-30T09:26:02.828Z,20.60
2022-07-30T09:28:48.831Z,20.70
2022-07-30T09:31:16.876Z,20.80
2022-07-30T09:34:02.912Z,20.80
2022-07-30T09:36:48.498Z,20.90
2022-07-30T09:39:40.054Z,21.10
2022-07-30T09:42:32.946Z,21.20
2022-07-30T09:45:08.850Z,21.30
2022-07-30T09:47:38.518Z,21.40
2022-07-30T09:50:10.362Z,21.40
2022-07-30T09:52:43.825Z,21.40
2022-07-30T09:55:12.221Z,21.50
2022-07-30T09:57:57.567Z,21.60
2022-07-30T10:00:26.278Z,21.60
2022-07-30T10:03:33.945Z,21.70
2022-07-30T10:06:35.286Z,21.80
2022-07-30T10:09:14.292Z,21.80
2022-07-30T10:11:44.984Z,21.80
2022-07-30T10:14:12.360Z,21.80
2022-07-30T10:16:39.823Z,21.90
2022-07-30T10:19:07.221Z,22.00
2022-07-30T10:22:01.869Z,22.00
2022-07-30T10:24:48.646Z,21.90
2022-07-30T10:27:35.134Z,21.90
2022-07-30T10:30:08.351Z,22.00
2022-07-30T10:32:42.402Z,22.00
2022-07-30T10:35:09.975Z,22.20
2022-07-30T10:37:38.915Z,22.20
2022-07-30T10:40:20.042Z,22.20
2022-07-30T10:42:50.494Z,22.20
2022-07-30T10:45:19.499Z,22.10
2022-07-30T10:47:48.641Z,22.10
2022-07-30T10:50:22.714Z,22.20
2022-07-30T10:52:54.226Z,22.10
2022-07-30T10:55:37.106Z,22.10
2022-07-30T10:58:07.649Z,22.10
2022-07-30T11:00:37.475Z,22.30
2022-07-30T11:03:18.548Z,22.30
2022-07-30T11:05:47.416Z,22.30
2022-07-30T11:08:36.379Z,22.40
2022-07-30T11:11:19.197Z,22.60
2022-07-30T11:13:54.565Z,22.70
2022-07-30T11:16:23.688Z,22.90
2022-07-30T11:19:55.189Z,22.80
2022-07-30T11:22:33.117Z,22.90
2022-07-30T11:25:00.492Z,23.00
2022-07-30T11:27:41.286Z,23.10
2022-07-30T11:30:33.664Z,23.20
2022-07-30T11:33:03.838Z,23.20
2022-07-30T11:35:34.688Z,23.20
2022-07-30T11:38:18.769Z,23.20
2022-07-30T11:40:46.413Z,23.20
2022-07-30T11:43:35.078Z,23.20
2022-07-30T11:46:10.203Z,23.20
2022-07-30T11:48:42.097Z,23.30
2022-07-30T11:51:09.668Z,23.40
2022-07-30T11:53:37.037Z,23.50
2022-07-30T11:56:04.458Z,23.40
2022-07-30T11:58:33.376Z,23.20
2022-07-30T12:01:02.406Z,23.10
2022-07-30T12:03:39.906Z,23.20
2022-07-30T12:06:18.027Z,23.40
2022-07-30T12:08:47.350Z,23.50
2022-07-30T12:11:15.445Z,23.60
2022-07-30T12:13:46.310Z,23.70
2022-07-30T12:16:16.731Z,23.80
2022-07-30T12:18:44.240Z,23.90
2022-07-30T12:21:17.447Z,24.00
2022-07-30T12:23:58.314Z,24.00
2022-07-30T12:26:27.306Z,24.10
2022-07-30T12:28:55.513Z,24.20
2022-07-30T12:31:22.678Z,24.30
2022-07-30T12:33:50.080Z,24.30
2022-07-30T12:36:29.257Z,24.20
2022-07-30T12:38:57.890Z,24.10
2022-07-30T12:41:44.328Z,24.10
2022-07-30T12:44:16.288Z,23.90
2022-07-30T12:46:43.563Z,23.80
2022-07-30T12:49:22.673Z,23.80
2022-07-30T12:52:00.373Z,23.70
2022-07-30T12:54:28.693Z,23.70
2022-07-30T12:56:58.244Z,23.70
2022-07-30T12:59:25.929Z,23.80
2022-07-30T13:01:53.947Z,23.90
2022-07-30T13:04:21.309Z,24.00
2022-07-30T13:07:05.629Z,24.20
2022-07-30T13:09:35.633Z,24.30
2022-07-30T13:12:06.837Z,24.40
2022-07-30T13:14:34.218Z,24.50
2022-07-30T13:17:04.048Z,24.60
2022-07-30T13:19:31.690Z,24.60
2022-07-30T13:21:58.958Z,24.60
2022-07-30T13:24:26.600Z,24.60
2022-07-30T13:26:53.796Z,24.50
2022-07-30T13:29:21.035Z,24.40
2022-07-30T13:31:48.209Z,24.50
2022-07-30T13:34:15.395Z,24.60
2022-07-30T13:36:42.954Z,24.70
2022-07-30T13:39:12.134Z,24.80
2022-07-30T13:41:41.810Z,24.80
2022-07-30T13:44:09.047Z,24.90
2022-07-30T13:46:36.338Z,24.90
2022-07-30T13:49:04.509Z,24.90
2022-07-30T13:51:31.729Z,24.90
2022-07-30T13:53:59.215Z,24.90
2022-07-30T13:56:26.543Z,24.90
2022-07-30T13:58:54.840Z,24.80
2022-07-30T14:01:22.131Z,24.80
2022-07-30T14:03:50.695Z,24.80
2022-07-30T14:06:19.124Z,24.70
2022-07-30T14:08:46.535Z,24.60
2022-07-30T14:11:13.872Z,24.30
2022-07-30T14:13:41.201Z,24.10
2022-07-30T14:16:28.471Z,24.00
2022-07-30T14:18:57.347Z,24.10
2022-07-30T14:21:24.869Z,24.20
2022-07-30T14:23:52.137Z,24.30
2022-07-30T14:26:19.387Z,24.40
2022-07-30T14:28:47.054Z,24.40
2022-07-30T14:31:14.247Z,24.30
2022-07-30T14:33:41.882Z,24.10
2022-07-30T14:36:10.114Z,24.00
2022-07-30T14:38:39.730Z,24.10
2022-07-30T14:41:08.740Z,24.20
2022-07-30T14:43:36.069Z,24.20
2022-07-30T14:46:03.391Z,24.30
2022-07-30T14:48:30.705Z,24.30
2022-07-30T14:51:13.409Z,24.40
2022-07-30T14:53:43.306Z,24.40
2022-07-30T14:56:14.612Z,24.40
2022-07-30T14:58:45.484Z,24.40
2022-07-30T15:01:16.617Z,24.40
2022-07-30T15:03:45.263Z,24.40
2022-07-30T15:06:14.880Z,24.40
2022-07-30T15:08:42.821Z,24.40
2022-07-30T15:11:10.077Z,24.40
2022-07-30T15:13:39.798Z,24.40
2022-07-30T15:16:18.880Z,24.40
2022-07-30T15:18:46.314Z,24.40
2022-07-30T15:21:14.047Z,24.30
2022-07-30T15:23:41.539Z,24.30
2022-07-30T15:26:08.966Z,24.30
2022-07-30T15:28:39.629Z,24.40
2022-07-30T15:31:08.698Z,24.40
2022-07-30T15:33:37.301Z,24.30
2022-07-30T15:36:05.040Z,24.30
2022-07-30T15:38:33.603Z,24.30
2022-07-30T15:41:00.846Z,24.20
2022-07-30T15:43:28.311Z,24.30
2022-07-30T15:45:56.528Z,24.30
2022-07-30T15:48:26.608Z,24.30
2022-07-30T15:51:04.510Z,24.20
2022-07-30T15:53:32.085Z,24.10
2022-07-30T15:55:59.787Z,24.00
2022-07-30T15:58:27.086Z,24.00
2022-07-30T16:00:54.358Z,24.00
2022-07-30T16:03:21.889Z,24.00
2022-07-30T16:05:51.126Z,24.00
2022-07-30T16:08:22.878Z,24.00
2022-07-30T16:10:50.227Z,24.00
2022-07-30T16:13:17.760Z,24.20
2022-07-30T16:15:45.420Z,24.10
2022-07-30T16:18:13.117Z,24.10
2022-07-30T16:20:40.286Z,24.10
2022-07-30T16:23:13.131Z,24.10
2022-07-30T16:25:42.301Z,24.10
2022-07-30T16:28:09.520Z,24.10
2022-07-30T16:30:50.388Z,24.10
2022-07-30T16:33:17.911Z,24.10
2022-07-30T16:35:48.640Z,24.10
2022-07-30T16:38:17.884Z,24.10
2022-07-30T16:40:45.441Z,24.10
2022-07-30T16:43:12.605Z,24.10
2022-07-30T16:45:43.627Z,24.00
2022-07-30T16:48:11.826Z,24.00
2022-07-30T16:50:40.549Z,23.90
2022-07-30T16:53:13.497Z,23.90
2022-07-30T16:55:42.239Z,23.80
2022-07-30T16:58:09.950Z,23.70
2022-07-30T17:00:37.591Z,23.60
2022-07-30T17:03:04.833Z,23.60
2022-07-30T17:05:32.061Z,23.50
2022-07-30T17:07:59.260Z,23.50
2022-07-30T17:10:26.740Z,23.40
2022-07-30T17:12:54.465Z,23.40
2022-07-30T17:15:31.882Z,23.40
2022-07-30T17:18:03.239Z,23.30
2022-07-30T17:20:30.962Z,23.30
2022-07-30T17:22:58.139Z,23.30
2022-07-30T17:25:27.905Z,23.20
2022-07-30T17:27:56.343Z,23.20
2022-07-30T17:30:23.986Z,23.10
2022-07-30T17:32:51.228Z,23.10
2022-07-30T17:35:18.673Z,23.00
2022-07-30T17:37:46.046Z,23.00
2022-07-30T17:40:28.320Z,22.90
2022-07-30T17:43:03.155Z,22.90
2022-07-30T17:45:31.283Z,22.80
2022-07-30T17:47:58.555Z,22.80
2022-07-30T17:50:25.709Z,22.70
2022-07-30T17:52:52.902Z,22.70
2022-07-30T17:55:20.067Z,22.70
2022-07-30T17:57:47.263Z,22.60
2022-07-30T18:00:14.603Z,22.60
2022-07-30T18:02:41.794Z,22.60
2022-07-30T18:05:10.506Z,22.50
2022-07-30T18:07:37.676Z,22.50
2022-07-30T18:10:05.360Z,22.40
2022-07-30T18:12:32.551Z,22.40
2022-07-30T18:14:59.950Z,22.30
2022-07-30T18:17:27.145Z,22.30
2022-07-30T18:19:54.317Z,22.30
2022-07-30T18:22:29.313Z,22.20
2022-07-30T18:24:57.727Z,22.20
2022-07-30T18:27:25.455Z,22.20
2022-07-30T18:29:52.618Z,22.10
2022-07-30T18:32:19.863Z,22.10
2022-07-30T18:34:47.035Z,22.00
2022-07-30T18:37:14.206Z,21.90
2022-07-30T18:39:41.378Z,21.80
2022-07-30T18:42:08.631Z,21.60
2022-07-30T18:44:35.803Z,21.50
2022-07-30T18:47:03.015Z,21.40
2022-07-30T18:49:37.090Z,21.30
2022-07-30T18:52:06.593Z,21.20
2022-07-30T18:54:34.328Z,21.10
2022-07-30T18:57:01.839Z,21.00
2022-07-30T18:59:29.392Z,20.90
2022-07-30T19:01:56.574Z,20.80
2022-07-30T19:04:23.770Z,20.80
2022-07-30T19:06:50.979Z,20.70
2022-07-30T19:09:18.364Z,20.70
2022-07-30T19:11:46.290Z,20.60
2022-07-30T19:14:14.017Z,20.50
2022-07-30T19:16:41.973Z,20.50
2022-07-30T19:19:09.498Z,20.50
2022-07-30T19:21:36.665Z,20.40
2022-07-30T19:24:04.188Z,20.40
2022-07-30T19:26:31.415Z,20.30
2022-07-30T19:28:58.848Z,20.30
2022-07-30T19:31:26.373Z,20.30
2022-07-30T19:33:53.539Z,20.20
2022-07-30T19:36:21.055Z,20.20
2022-07-30T19:38:48.797Z,20.20
2022-07-30T19:41:16.457Z,20.20
2022-07-30T19:43:43.637Z,20.20
2022-07-30T19:46:25.537Z,20.20
2022-07-30T19:48:52.764Z,20.20
2022-07-30T19:54:07.206Z,20.20
2022-07-30T19:56:37.879Z,20.10
2022-07-30T19:59:14.550Z,20.20
2022-07-30T20:01:47.735Z,20.10
2022-07-30T20:04:14.935Z,20.20
2022-07-30T20:06:46.066Z,20.10
2022-07-30T20:09:14.562Z,20.20
2022-07-30T20:11:46.286Z,20.20
2022-07-30T20:14:16.197Z,20.10
2022-07-30T20:17:02.065Z,20.10
2022-07-30T20:19:36.255Z,20.10
2022-07-30T20:22:04.336Z,20.10
2022-07-30T20:24:31.507Z,20.10
2022-07-30T20:27:01.594Z,20.10
2022-07-30T20:29:48.726Z,20.10
2022-07-30T20:32:17.569Z,20.10
2022-07-30T20:34:44.859Z,20.00
2022-07-30T20:37:21.727Z,19.90
2022-07-30T20:39:50.304Z,19.90
2022-07-30T20:42:17.565Z,19.90
2022-07-30T20:44:49.398Z,19.90
2022-07-30T20:47:34.620Z,19.90
2022-07-30T20:50:09.389Z,19.90
2022-07-30T20:52:39.996Z,19.90
2022-07-30T20:55:14.487Z,19.90
2022-07-30T20:57:56.767Z,19.90
2022-07-30T21:00:28.506Z,19.90
2022-07-30T21:02:55.694Z,19.80
2022-07-30T21:05:23.011Z,19.80
2022-07-30T21:07:54.510Z,19.80
2022-07-30T21:10:23.620Z,19.80
2022-07-30T21:12:53.017Z,19.70
2022-07-30T21:15:26.251Z,19.70
2022-07-30T21:17:53.786Z,19.70
2022-07-30T21:20:26.622Z,19.70
2022-07-30T21:22:56.251Z,19.60
2022-07-30T21:28:27.217Z,19.50
2022-07-30T21:30:57.069Z,19.40
2022-07-30T21:33:31.142Z,19.30
2022-07-30T21:35:59.301Z,19.20
2022-07-30T21:38:27.472Z,19.20
2022-07-30T21:40:55.826Z,19.30
2022-07-30T21:43:30.103Z,19.20
2022-07-30T21:46:03.705Z,19.20
2022-07-30T21:48:31.063Z,19.20
2022-07-30T21:50:58.943Z,19.10
2022-07-30T21:53:26.423Z,19.10
2022-07-30T21:56:12.204Z,19.10
2022-07-30T21:58:39.392Z,19.10
2022-07-30T22:01:16.676Z,19.00
2022-07-30T22:04:03.972Z,19.00
2022-07-30T22:06:39.313Z,18.90
2022-07-30T22:09:20.542Z,18.90
2022-07-30T22:11:55.453Z,18.90
2022-07-30T22:14:23.072Z,18.90
2022-07-30T22:16:53.146Z,18.90
2022-07-30T22:19:21.708Z,18.90
2022-07-30T22:22:00.269Z,18.90
2022-07-30T22:24:36.987Z,18.90
2022-07-30T22:27:12.311Z,18.90
2022-07-30T22:29:43.111Z,18.90
2022-07-30T22:32:11.499Z,18.90
2022-07-30T22:34:38.690Z,18.80
2022-07-30T22:37:09.303Z,18.90
2022-07-30T22:39:51.049Z,18.80
2022-07-30T22:42:24.556Z,18.90
2022-07-30T22:44:54.833Z,18.90
2022-07-30T22:47:51.260Z,18.90
2022-07-30T22:50:10.692Z,18.80
2022-07-30T22:52:52.477Z,18.90
2022-07-30T22:55:26.058Z,18.80
2022-07-30T22:57:53.679Z,18.90
2022-07-30T23:00:27.386Z,18.80
2022-07-30T23:02:54.956Z,18.80
2022-07-30T23:05:23.324Z,18.80
2022-07-30T23:07:50.603Z,18.70
2022-07-30T23:10:18.630Z,18.70
2022-07-30T23:12:16.598Z,20.20
2022-07-30T23:12:31.417Z,19.60
2022-07-30T23:12:50.914Z,18.60
2022-07-30T23:15:18.566Z,18.60
2022-07-30T23:17:45.892Z,18.60
2022-07-30T23:20:14.907Z,18.50
2022-07-30T23:22:42.192Z,18.60
2022-07-30T23:25:12.688Z,18.50
2022-07-30T23:27:40.458Z,18.50
2022-07-30T23:30:08.525Z,18.50
2022-07-30T23:32:36.578Z,18.50
2022-07-30T23:35:04.771Z,18.50
2022-07-30T23:37:47.850Z,18.40
2022-07-30T23:40:17.822Z,18.40
2022-07-30T23:42:45.069Z,18.30
2022-07-30T23:45:12.295Z,18.30
2022-07-30T23:48:02.081Z,18.30
2022-07-30T23:50:27.211Z,18.20
2022-07-30T23:52:54.460Z,18.20
2022-07-30T23:55:21.698Z,18.10
2022-07-30T23:57:48.867Z,18.10
